Time;durP1;ratioP1;P1;durP2;ratioP2;P2;SDS_P1;SDS_P2;PMS_P1;PMS_P2;Temp;Humidity;BMP_temperature;BMP_pressure;BME280_temperature;BME280_humidity;BME280_pressure;Samples;Min_cycle;Max_cycle;Signal;HPM_P1;HPM_P2
2022/10/26 00:01:16;;;;;;;0.85;0.80;;;13.90;99.90;;;14.07;100.00;100909.97;5247483;28;20068;-73
2022/10/26 00:03:48;;;;;;;1.00;0.60;;;13.90;99.90;;;14.07;100.00;100900.38;5247964;28;20044;-74
2022/10/26 00:06:23;;;;;;;0.80;0.77;;;13.90;99.90;;;14.05;100.00;100893.34;5247777;28;20053;-73
2022/10/26 00:08:57;;;;;;;3.17;0.70;;;13.90;99.90;;;14.03;100.00;100884.56;5247451;28;20163;-73
2022/10/26 00:11:29;;;;;;;1.10;0.80;;;13.80;99.90;;;13.99;100.00;100894.09;5247328;28;20044;-73
2022/10/26 00:14:01;;;;;;;0.80;0.80;;;13.80;99.90;;;13.97;100.00;100885.31;5247591;28;20041;-74
2022/10/26 00:16:34;;;;;;;1.00;0.90;;;13.80;99.90;;;13.96;100.00;100880.06;5247608;28;20040;-73
2022/10/26 00:19:06;;;;;;;1.50;0.93;;;13.80;99.90;;;13.94;100.00;100874.75;5247602;28;20529;-74
2022/10/26 00:21:38;;;;;;;0.82;0.60;;;13.80;99.90;;;13.95;100.00;100875.63;5247164;28;20048;-73
2022/10/26 00:24:11;;;;;;;1.05;0.90;;;13.70;99.90;;;13.93;100.00;100885.19;5247633;28;20045;-73
2022/10/26 00:26:44;;;;;;;1.13;0.80;;;13.70;99.90;;;13.94;100.00;100879.09;5245891;28;20040;-72
2022/10/26 00:29:17;;;;;;;3.75;0.82;;;13.70;99.90;;;13.95;100.00;100880.88;5247586;28;20493;-73
2022/10/26 00:31:50;;;;;;;1.27;0.70;;;13.80;99.90;;;13.96;100.00;100880.94;5246908;28;20045;-74
2022/10/26 00:34:22;;;;;;;0.90;0.80;;;13.80;99.90;;;13.96;100.00;100895.78;5247628;28;20057;-73
2022/10/26 00:36:54;;;;;;;0.85;0.80;;;13.80;99.90;;;13.98;100.00;100887.09;5246941;28;20040;-73
2022/10/26 00:39:26;;;;;;;1.23;0.80;;;13.80;99.90;;;14.01;100.00;100888.88;5247112;28;20048;-73
2022/10/26 00:41:58;;;;;;;1.70;0.70;;;13.80;99.90;;;14.03;100.00;100892.44;5245266;28;20047;-73
2022/10/26 00:45:00;;;;;;;1.25;0.80;;;13.80;99.90;;;14.04;100.00;100894.19;5246959;28;20052;-73
2022/10/26 00:47:41;;;;;;;2.80;0.88;;;13.80;99.90;;;14.05;100.00;100893.34;5246845;28;20150;-73
2022/10/26 00:50:19;;;;;;;1.60;0.73;;;13.90;99.90;;;14.06;100.00;100897.72;5246739;28;20041;-73
2022/10/26 00:52:54;;;;;;;1.00;0.73;;;13.90;99.90;;;14.09;100.00;100887.34;5245056;28;20056;-73
2022/10/26 00:55:32;;;;;;;2.03;0.70;;;13.90;99.90;;;14.12;100.00;100888.28;5247058;28;20055;-73
2022/10/26 00:58:07;;;;;;;1.40;0.82;;;13.90;99.90;;;14.13;100.00;100894.38;5247009;28;20100;-73
2022/10/26 01:00:40;;;;;;;1.17;0.90;;;14.00;99.90;;;14.16;100.00;100894.47;5245987;28;20051;-74
2022/10/26 01:03:14;;;;;;;2.03;0.70;;;13.90;99.90;;;14.17;100.00;100895.34;5246854;28;20044;-73
2022/10/26 01:05:48;;;;;;;0.90;0.70;;;14.00;99.90;;;14.18;100.00;100892.75;5245732;28;20044;-73
2022/10/26 01:08:20;;;;;;;1.40;0.90;;;14.00;99.90;;;14.21;100.00;100895.44;5246375;28;20040;-73
2022/10/26 01:10:53;;;;;;;1.50;0.90;;;14.00;99.90;;;14.20;100.00;100880.56;5246338;28;20055;-75
2022/10/26 01:13:28;;;;;;;2.78;0.95;;;14.00;99.90;;;14.20;100.00;100879.69;5246228;28;20048;-73
2022/10/26 01:16:22;;;;;;;1.08;0.90;;;14.00;99.90;;;14.21;100.00;100884.06;5246544;28;20044;-73
2022/10/26 01:19:15;;;;;;;2.03;0.90;;;14.10;99.90;;;14.22;100.00;100881.50;5246446;28;20040;-73
2022/10/26 01:21:55;;;;;;;2.38;0.80;;;14.10;99.90;;;14.20;100.00;100870.06;5245998;28;20052;-74
2022/10/26 01:24:59;;;;;;;2.60;1.25;;;14.00;99.90;;;14.20;100.00;100869.19;5246716;28;20128;-73
2022/10/26 01:27:35;;;;;;;1.58;0.80;;;14.10;99.90;;;14.16;100.00;100867.38;5244842;28;20076;-73
2022/10/26 01:30:19;;;;;;;2.13;0.90;;;14.00;99.90;;;14.11;100.00;100859.41;5246476;28;20037;-73
2022/10/26 01:33:09;;;;;;;3.33;1.10;;;14.00;99.90;;;14.09;100.00;100853.25;5246327;28;20076;-74
2022/10/26 01:35:52;;;;;;;1.92;0.95;;;14.00;99.90;;;14.12;100.00;100850.69;5244938;28;20040;-73
2022/10/26 01:38:30;;;;;;;1.73;0.80;;;14.00;99.90;;;14.12;100.00;100850.69;5245871;28;20524;-75
2022/10/26 01:41:10;;;;;;;2.33;0.80;;;14.00;99.90;;;14.13;100.00;100848.09;5244517;28;20050;-73
2022/10/26 01:43:48;;;;;;;1.92;1.15;;;14.00;99.90;;;14.15;100.00;100845.53;5244700;28;20044;-73
2022/10/26 01:46:24;;;;;;;1.88;0.93;;;14.00;99.90;;;14.17;100.00;100849.06;5246450;28;20048;-74
2022/10/26 01:49:01;;;;;;;2.75;1.00;;;14.10;99.90;;;14.20;100.00;100838.63;5245783;28;20045;-73
2022/10/26 01:51:34;;;;;;;1.48;0.88;;;14.10;99.90;;;14.22;100.00;100821.19;5245753;28;20048;-73
2022/10/26 01:54:06;;;;;;;2.95;1.10;;;14.10;99.90;;;14.24;100.00;100819.47;5246018;28;20127;-73
2022/10/26 01:56:41;;;;;;;1.20;0.90;;;14.10;99.90;;;14.25;100.00;100820.38;5246176;28;20044;-75
2022/10/26 01:59:35;;;;;;;0.80;0.73;;;14.10;99.90;;;14.27;100.00;100809.03;5244444;28;20044;-73
2022/10/26 02:02:39;;;;;;;3.10;0.82;;;14.10;99.90;;;14.28;100.00;100820.41;5245559;28;20044;-74
2022/10/26 02:05:38;;;;;;;1.00;0.77;;;14.10;99.90;;;14.29;100.00;100815.22;5247258;28;20068;-74
2022/10/26 02:08:36;;;;;;;1.33;0.90;;;14.20;99.90;;;14.31;100.00;100813.50;5250055;28;20051;-73
2022/10/26 02:11:18;;;;;;;2.85;0.95;;;14.20;99.90;;;14.31;100.00;100816.13;5249525;28;20044;-74
2022/10/26 02:13:56;;;;;;;3.25;1.05;;;14.20;99.90;;;14.31;100.00;100815.25;5249582;28;20045;-73
2022/10/26 02:16:37;;;;;;;1.67;0.95;;;14.20;99.90;;;14.33;100.00;100814.41;5248689;28;20048;-73
2022/10/26 02:19:23;;;;;;;3.35;1.15;;;14.20;99.90;;;14.30;100.00;100810.84;5249815;28;20040;-73
2022/10/26 02:22:03;;;;;;;2.10;1.08;;;14.20;99.90;;;14.32;100.00;100817.00;5249135;28;20497;-73
2022/10/26 02:24:37;;;;;;;2.15;1.42;;;14.20;99.90;;;14.34;100.00;100816.22;5249934;28;20450;-73
2022/10/26 02:27:14;;;;;;;1.48;0.85;;;14.20;99.90;;;14.38;100.00;100811.88;5249853;28;20037;-73
2022/10/26 02:29:50;;;;;;;1.10;0.90;;;14.30;99.90;;;14.40;100.00;100816.28;5249707;28;20481;-73
2022/10/26 02:32:27;;;;;;;3.22;1.00;;;14.30;99.90;;;14.43;100.00;100806.75;5249207;28;20045;-73
2022/10/26 02:35:03;;;;;;;1.33;1.00;;;14.30;99.90;;;14.46;100.00;100809.41;5249546;28;20127;-73
2022/10/26 02:37:38;;;;;;;3.22;1.05;;;14.30;99.90;;;14.50;100.00;100806.91;5248153;28;20045;-73
2022/10/26 02:40:18;;;;;;;2.60;0.90;;;14.30;99.90;;;14.52;100.00;100801.69;5249222;28;20054;-73
2022/10/26 02:42:53;;;;;;;3.25;1.00;;;14.40;99.90;;;14.50;100.00;100800.78;5249079;28;20055;-73
2022/10/26 02:45:30;;;;;;;1.15;0.95;;;14.40;99.90;;;14.50;100.00;100801.66;5247967;28;20040;-73
2022/10/26 02:48:03;;;;;;;4.55;1.50;;;14.40;99.90;;;14.50;100.00;100806.03;5249121;28;20400;-73
2022/10/26 02:50:47;;;;;;;2.55;1.00;;;14.40;99.90;;;14.52;100.00;100806.94;5249073;28;20040;-73
2022/10/26 02:53:27;;;;;;;1.83;1.40;;;14.40;99.90;;;14.52;100.00;100799.06;5249001;28;20412;-74
2022/10/26 02:56:06;;;;;;;2.22;0.80;;;14.40;99.90;;;14.54;100.00;100802.59;5249468;28;20037;-73
2022/10/26 02:58:43;;;;;;;1.83;1.15;;;14.40;99.90;;;14.56;100.00;100798.28;5249260;28;20498;-74
2022/10/26 03:01:15;;;;;;;1.23;1.10;;;14.50;99.90;;;14.57;100.00;100798.31;5249361;28;20037;-73
2022/10/26 03:03:48;;;;;;;3.45;1.23;;;14.50;99.90;;;14.56;100.00;100793.91;5249124;28;20045;-74
2022/10/26 03:06:25;;;;;;;4.60;1.20;;;14.50;99.90;;;14.55;100.00;100788.66;5248936;28;20052;-73
2022/10/26 03:08:57;;;;;;;2.15;1.15;;;14.50;99.90;;;14.57;100.00;100784.31;5248846;28;20036;-73
2022/10/26 03:11:29;;;;;;;3.33;1.00;;;14.50;99.90;;;14.60;100.00;100786.97;5248966;28;20497;-73
2022/10/26 03:14:01;;;;;;;1.35;0.90;;;14.50;99.90;;;14.63;100.00;100789.66;5248988;28;20052;-73
2022/10/26 03:16:33;;;;;;;2.38;1.00;;;14.50;99.90;;;14.63;100.00;100787.03;5248793;28;20507;-73
2022/10/26 03:19:05;;;;;;;1.60;0.82;;;14.50;99.90;;;14.66;100.00;100787.09;5248714;28;20041;-74
2022/10/26 03:21:41;;;;;;;0.90;0.80;;;14.50;99.90;;;14.66;100.00;100787.09;5247436;28;20078;-74
2022/10/26 03:24:13;;;;;;;1.77;0.90;;;14.60;99.90;;;14.69;100.00;100792.41;5249311;28;20497;-74
2022/10/26 03:26:45;;;;;;;2.47;1.10;;;14.50;99.90;;;14.69;100.00;100796.78;5248491;28;20044;-73
2022/10/26 03:29:17;;;;;;;3.83;2.00;;;14.50;99.90;;;14.69;100.00;100796.78;5248563;28;20579;-74
2022/10/26 03:31:53;;;;;;;3.15;1.90;;;14.50;99.90;;;14.69;100.00;100788.91;5248443;28;20538;-74
2022/10/26 03:34:25;;;;;;;3.80;1.70;;;14.50;99.90;;;14.71;100.00;100790.69;5247301;28;20147;-74
2022/10/26 03:36:58;;;;;;;3.38;1.77;;;14.60;99.90;;;14.70;100.00;100794.16;5248339;28;20045;-73
2022/10/26 03:39:30;;;;;;;2.80;1.40;;;14.60;99.90;;;14.71;100.00;100792.44;5248676;28;20036;-73
2022/10/26 03:42:02;;;;;;;3.60;2.05;;;14.60;99.90;;;14.72;100.00;100797.69;5247921;28;20543;-74
2022/10/26 03:44:34;;;;;;;4.72;2.38;;;14.60;99.90;;;14.72;100.00;100787.19;5248427;28;20115;-74
2022/10/26 03:47:07;;;;;;;5.22;2.20;;;14.60;99.90;;;14.75;100.00;100796.88;5248321;28;20040;-74
2022/10/26 03:49:39;;;;;;;3.15;1.60;;;14.60;99.90;;;14.74;100.00;100789.88;5248957;28;20055;-73
2022/10/26 03:52:12;;;;;;;2.10;1.40;;;14.60;99.90;;;14.77;100.00;100795.16;5247771;28;20056;-74
2022/10/26 03:54:44;;;;;;;2.75;1.63;;;14.60;99.90;;;14.80;100.00;100797.81;5248875;28;20044;-74
2022/10/26 03:57:17;;;;;;;4.93;1.85;;;14.60;99.90;;;14.80;100.00;100796.13;5248439;28;20045;-75
2022/10/26 03:59:49;;;;;;;5.75;2.05;;;14.70;99.90;;;14.81;100.00;100797.00;5247673;28;20045;-74
2022/10/26 04:02:21;;;;;;;5.10;1.60;;;14.70;99.90;;;14.81;100.00;100797.88;5248054;28;20078;-73
2022/10/26 04:04:53;;;;;;;8.23;4.25;;;14.70;99.90;;;14.80;100.00;100788.25;5248051;28;20700;-75
2022/10/26 04:07:26;;;;;;;13.45;5.68;;;14.60;99.90;;;14.79;100.00;100789.06;5247843;28;20059;-74
2022/10/26 04:09:58;;;;;;;10.32;4.88;;;14.60;99.90;;;14.79;100.00;100791.69;5246310;28;20052;-74
2022/10/26 04:12:30;;;;;;;9.57;4.18;;;14.70;99.90;;;14.79;100.00;100796.94;5404075;22;20041;-69
2022/10/26 04:15:02;;;;;;;6.90;3.50;;;14.60;99.90;;;14.80;100.00;100792.56;5224197;28;20049;-70
2022/10/26 04:17:35;;;;;;;5.63;2.60;;;14.60;99.90;;;14.75;100.00;100787.28;5244595;28;20041;-70
2022/10/26 04:20:09;;;;;;;5.38;2.30;;;14.60;99.90;;;14.74;100.00;100790.75;5246244;28;20041;-70
2022/10/26 04:22:42;;;;;;;3.22;1.88;;;14.60;99.90;;;14.75;100.00;100795.13;5246804;28;20518;-70
2022/10/26 04:25:14;;;;;;;5.55;2.65;;;14.60;99.90;;;14.76;100.00;100794.28;5228676;28;20078;-70
2022/10/26 04:27:46;;;;;;;4.85;2.30;;;14.60;99.90;;;14.77;100.00;100798.66;5227904;28;20036;-70
2022/10/26 04:30:19;;;;;;;3.63;2.40;;;14.60;99.90;;;14.79;100.00;100794.31;5246391;28;20071;-69
2022/10/26 04:32:51;;;;;;;2.50;1.85;;;14.60;99.90;;;14.81;100.00;100791.75;5228585;28;20060;-70
2022/10/26 04:35:23;;;;;;;2.97;1.60;;;14.60;99.90;;;14.82;100.00;100794.38;5246682;28;20045;-70
2022/10/26 04:37:59;;;;;;;1.67;1.48;;;14.60;99.90;;;14.85;100.00;100798.78;5246563;28;20060;-71
2022/10/26 04:40:33;;;;;;;2.75;1.42;;;14.60;99.90;;;14.85;100.00;100797.06;5246236;28;20045;-69
2022/10/26 04:43:05;;;;;;;2.55;1.40;;;14.70;99.90;;;14.87;100.00;100797.97;5246375;28;20072;-70
2022/10/26 04:45:37;;;;;;;3.70;1.50;;;14.70;99.90;;;14.88;100.00;100802.38;5228400;28;20050;-70
2022/10/26 04:48:12;;;;;;;2.40;1.30;;;14.70;99.90;;;14.87;100.00;100799.72;5246024;28;20037;-70
2022/10/26 04:50:44;;;;;;;1.88;1.40;;;14.70;99.90;;;14.86;100.00;100795.31;5246107;28;20048;-69
2022/10/26 04:53:17;;;;;;;2.83;1.52;;;14.70;99.90;;;14.86;100.00;100798.81;5246012;28;20052;-69
2022/10/26 04:55:49;;;;;;;3.45;1.70;;;14.70;99.90;;;14.85;100.00;100794.44;5228264;28;20588;-69
2022/10/26 04:58:21;;;;;;;3.25;1.90;;;14.70;99.90;;;14.86;100.00;100793.56;5246291;28;20055;-69
2022/10/26 05:00:53;;;;;;;3.67;1.90;;;14.70;99.90;;;14.84;100.00;100784.78;5245546;28;20041;-68
2022/10/26 05:03:25;;;;;;;2.67;1.50;;;14.70;99.90;;;14.81;100.00;100776.88;5228175;28;20636;-69
2022/10/26 05:05:59;;;;;;;5.78;1.65;;;14.60;99.90;;;14.81;100.00;100776.00;5246972;28;20756;-69
2022/10/26 05:08:32;;;;;;;4.05;1.58;;;14.70;99.90;;;14.80;100.00;100769.88;5227973;28;20064;-69
2022/10/26 05:11:05;;;;;;;5.63;1.40;;;14.70;99.90;;;14.77;100.00;100772.44;5227317;28;20049;-69
2022/10/26 05:13:37;;;;;;;3.40;0.98;;;14.70;99.90;;;14.79;100.00;100773.31;5245919;28;20083;-69
2022/10/26 05:16:09;;;;;;;2.70;1.10;;;14.70;99.90;;;14.80;100.00;100775.13;5245945;28;20040;-70
2022/10/26 05:18:41;;;;;;;2.53;1.23;;;14.70;99.90;;;14.82;100.00;100773.41;5245994;28;20036;-70
2022/10/26 05:21:18;;;;;;;4.53;1.30;;;14.70;99.90;;;14.83;100.00;100772.53;5245602;28;20036;-70
2022/10/26 05:23:54;;;;;;;2.03;0.95;;;14.70;99.90;;;14.87;100.00;100770.84;5245627;28;20044;-70
2022/10/26 05:26:26;;;;;;;5.63;1.30;;;14.70;99.90;;;14.85;100.00;100767.31;5227974;28;20448;-70
2022/10/26 05:28:58;;;;;;;3.60;1.00;;;14.70;99.90;;;14.88;100.00;100763.00;5246167;28;20037;-70
2022/10/26 05:31:30;;;;;;;2.97;1.48;;;14.80;99.90;;;14.90;100.00;100760.41;5245324;28;20568;-70
2022/10/26 05:34:02;;;;;;;1.50;1.10;;;14.80;99.90;;;14.92;100.00;100758.69;5227632;28;20428;-69
2022/10/26 05:36:34;;;;;;;1.35;1.15;;;14.80;99.90;;;14.97;100.00;100772.75;5245728;28;20058;-69
2022/10/26 05:39:08;;;;;;;2.80;1.05;;;14.80;99.90;;;14.97;100.00;100771.88;5245259;28;20041;-69
2022/10/26 05:41:40;;;;;;;3.65;0.90;;;14.90;99.90;;;15.02;100.00;100775.47;5244669;28;20082;-69
2022/10/26 05:44:12;;;;;;;3.03;1.27;;;14.90;99.90;;;15.03;100.00;100778.13;5245698;28;20056;-71
2022/10/26 05:46:46;;;;;;;4.47;1.05;;;14.90;99.90;;;15.01;100.00;100781.59;5245470;28;20119;-71
2022/10/26 05:49:18;;;;;;;2.10;0.90;;;14.90;99.90;;;15.03;100.00;100793.88;5245722;28;20072;-71
2022/10/26 05:51:50;;;;;;;1.85;1.05;;;14.90;99.90;;;15.04;100.00;100794.75;5245186;28;20044;-70
2022/10/26 05:54:24;;;;;;;3.70;1.20;;;14.90;99.90;;;15.05;100.00;100792.13;5227422;28;20053;-70
2022/10/26 05:56:57;;;;;;;3.50;1.02;;;14.90;99.90;;;15.08;100.00;100802.72;5245378;28;20045;-70
2022/10/26 05:59:31;;;;;;;2.30;1.08;;;14.90;99.90;;;15.12;100.00;100811.50;5245423;28;20497;-69
2022/10/26 06:02:14;;;;;;;1.10;1.00;;;14.90;99.90;;;15.11;100.00;100812.38;5245286;28;20049;-69
2022/10/26 06:04:47;;;;;;;2.00;1.38;;;14.90;99.90;;;15.10;100.00;100824.63;5245144;28;20403;-55
2022/10/26 06:07:20;;;;;;;2.88;1.23;;;14.90;99.90;;;15.08;100.00;100828.06;5244787;28;20040;-56
2022/10/26 06:09:55;;;;;;;2.47;1.10;;;14.90;99.90;;;15.06;100.00;100819.28;5245012;28;20045;-55
2022/10/26 06:12:27;;;;;;;4.28;1.38;;;14.90;99.90;;;15.06;100.00;100828.06;5244812;28;20482;-57
2022/10/26 06:15:00;;;;;;;2.33;1.13;;;14.90;99.90;;;15.04;100.00;100824.50;5244725;28;20047;-55
2022/10/26 06:17:54;;;;;;;3.28;1.33;;;14.90;99.90;;;15.01;100.00;100826.22;5244852;28;20063;-56
2022/10/26 06:20:40;;;;;;;2.30;1.02;;;14.90;99.90;;;14.98;100.00;100823.50;5217426;28;20528;-54
2022/10/26 06:23:37;;;;;;;2.25;1.27;;;14.90;99.90;;;14.94;100.00;100819.97;5244695;28;20055;-55
2022/10/26 06:26:24;;;;;;;2.63;1.50;;;14.80;99.90;;;14.91;100.00;100820.78;5244656;28;20405;-55
2022/10/26 06:29:07;;;;;;;4.35;1.20;;;14.80;99.90;;;14.86;100.00;100826.81;5244277;28;20041;-54
2022/10/26 06:31:39;;;;;;;1.52;1.20;;;14.80;99.90;;;14.83;100.00;100830.28;5243893;28;20404;-56
2022/10/26 06:34:19;;;;;;;3.22;1.48;;;14.70;99.90;;;14.83;100.00;100838.13;5244101;28;20414;-57
2022/10/26 06:36:51;;;;;;;2.03;1.00;;;14.70;99.90;;;14.82;100.00;100841.63;5243935;28;20061;-54
2022/10/26 06:39:24;;;;;;;2.75;1.33;;;14.70;99.90;;;14.80;100.00;100848.59;5243906;28;20048;-54
2022/10/26 06:41:59;;;;;;;2.22;1.25;;;14.70;99.90;;;14.79;100.00;100854.69;5243496;28;20063;-54
2022/10/26 06:44:32;;;;;;;3.45;1.20;;;14.70;99.90;;;14.79;100.00;100853.78;5225420;28;20521;-55
2022/10/26 06:47:07;;;;;;;4.22;1.15;;;14.70;99.90;;;14.78;100.00;100845.03;5244388;28;20048;-54
2022/10/26 06:49:50;;;;;;;1.77;1.20;;;14.70;99.90;;;14.74;100.00;100863.34;5244444;28;20063;-54
2022/10/26 06:52:32;;;;;;;2.10;1.00;;;14.60;99.90;;;14.73;100.00;100853.69;5247378;28;20050;-57
2022/10/26 06:55:05;;;;;;;3.10;1.30;;;14.60;99.90;;;14.69;100.00;100855.38;5248429;28;20055;-55
2022/10/26 06:57:41;;;;;;;3.00;1.30;;;14.60;99.90;;;14.65;100.00;100853.53;5248482;28;20048;-55
2022/10/26 07:00:20;;;;;;;1.85;1.38;;;14.60;99.90;;;14.66;100.00;100853.56;5248016;28;20497;-54
2022/10/26 07:02:52;;;;;;;1.73;1.02;;;14.60;99.90;;;14.68;100.00;100852.72;5248015;28;20048;-54
2022/10/26 07:05:24;;;;;;;5.78;1.20;;;14.60;99.90;;;14.70;100.00;100857.13;5247957;28;20048;-55
2022/10/26 07:07:56;;;;;;;2.92;1.00;;;14.60;99.90;;;14.74;100.00;100855.47;5247830;28;20520;-55
2022/10/26 07:10:29;;;;;;;3.38;1.50;;;14.60;99.90;;;14.72;100.00;100855.41;5247876;28;20404;-54
2022/10/26 07:13:02;;;;;;;2.35;1.10;;;14.60;99.90;;;14.72;100.00;100850.16;5247522;28;20094;-55
2022/10/26 07:15:35;;;;;;;2.83;1.30;;;14.60;99.90;;;14.73;100.00;100854.56;5247753;28;20052;-54
2022/10/26 07:18:08;;;;;;;1.83;1.10;;;14.60;99.90;;;14.74;100.00;100853.72;5247749;28;20119;-55
2022/10/26 07:20:41;;;;;;;2.58;1.50;;;14.60;99.90;;;14.74;100.00;100863.34;5247595;28;20424;-55
2022/10/26 07:23:14;;;;;;;2.10;1.20;;;14.60;99.90;;;14.76;100.00;100861.63;5247687;28;20084;-56
2022/10/26 07:25:46;;;;;;;4.95;1.70;;;14.60;99.90;;;14.75;100.00;100860.75;5247854;28;20052;-55
2022/10/26 07:28:20;;;;;;;3.28;1.40;;;14.60;99.90;;;14.75;100.00;100868.59;5247466;28;20528;-54
2022/10/26 07:30:52;;;;;;;3.22;1.20;;;14.60;99.90;;;14.76;100.00;100870.38;5229398;28;20060;-54
2022/10/26 07:33:24;;;;;;;2.70;1.80;;;14.60;99.90;;;14.78;100.00;100863.41;5246851;28;20412;-56
2022/10/26 07:35:56;;;;;;;3.08;1.25;;;14.70;99.90;;;14.83;100.00;100877.50;5247485;28;20044;-56
2022/10/26 07:38:28;;;;;;;1.98;1.20;;;14.70;99.90;;;14.87;100.00;100886.34;5239551;28;20044;-61
2022/10/26 07:41:01;;;;;;;2.38;1.20;;;14.70;99.90;;;14.90;100.00;100903.00;5244334;28;20532;-61
2022/10/26 07:43:35;;;;;;;3.58;1.40;;;14.70;99.90;;;14.93;100.00;100907.41;5246905;28;20048;-59
2022/10/26 07:46:07;;;;;;;4.57;1.40;;;14.70;99.90;;;14.95;100.00;100899.59;5246948;28;20045;-59
2022/10/26 07:48:41;;;;;;;3.85;1.63;;;14.80;99.90;;;14.92;100.00;100906.53;5245920;28;20045;-57
2022/10/26 07:51:13;;;;;;;3.38;1.67;;;14.80;99.90;;;14.92;100.00;100897.78;5245657;28;20036;-60
2022/10/26 07:53:46;;;;;;;4.45;1.70;;;14.80;99.90;;;14.90;100.00;100889.88;5246243;28;20079;-60
2022/10/26 07:56:18;;;;;;;2.97;1.60;;;14.80;99.90;;;14.91;100.00;100886.41;5246628;28;20045;-61
2022/10/26 07:58:54;;;;;;;4.97;2.10;;;14.80;99.90;;;14.95;100.00;100878.59;5246539;28;20037;-59
2022/10/26 08:01:26;;;;;;;5.32;1.80;;;14.80;99.90;;;15.00;100.00;100887.44;5246313;28;20051;-61
2022/10/26 08:03:58;;;;;;;3.80;1.55;;;14.80;99.90;;;15.05;100.00;100902.41;5245938;28;20036;-61
2022/10/26 08:06:30;;;;;;;4.85;1.65;;;14.90;99.90;;;15.20;100.00;100896.56;5247206;28;20040;-57
2022/10/26 08:09:02;;;;;;;4.35;1.70;;;14.90;99.90;;;15.58;100.00;100891.03;5246208;28;20047;-57
2022/10/26 08:11:35;;;;;;;4.22;1.60;;;15.20;99.90;;;16.20;100.00;100891.13;5245842;28;20045;-59
2022/10/26 08:14:11;;;;;;;5.55;1.92;;;15.60;99.90;;;17.06;100.00;100891.28;5246176;28;20131;-59
2022/10/26 08:16:43;;;;;;;4.25;1.40;;;16.30;99.90;;;17.95;100.00;100884.13;5246301;28;20127;-60
2022/10/26 08:19:15;;;;;;;2.58;1.23;;;17.00;99.90;;;18.64;100.00;100874.75;5246107;28;20036;-60
2022/10/26 08:21:47;;;;;;;2.70;1.15;;;17.70;99.90;;;19.08;100.00;100889.88;5245744;28;20044;-58
2022/10/26 08:24:19;;;;;;;3.40;1.15;;;18.20;99.90;;;19.64;100.00;100893.47;5246088;28;20048;-59
2022/10/26 08:26:51;;;;;;;2.55;1.17;;;18.70;99.90;;;20.03;100.00;100900.44;5245921;28;20127;-60
2022/10/26 08:29:25;;;;;;;2.40;1.92;;;19.10;99.90;;;20.35;100.00;100896.84;5245816;28;20381;-59
2022/10/26 08:31:57;;;;;;;3.90;1.33;;;19.50;99.90;;;20.46;100.00;100895.03;5225428;28;20051;-61
2022/10/26 08:34:29;;;;;;;3.17;1.60;;;19.80;99.90;;;20.31;100.00;100904.78;5224876;28;20436;-60
2022/10/26 08:37:01;;;;;;;3.42;1.20;;;19.80;99.90;;;20.15;100.00;100899.50;5231632;28;20515;-60
2022/10/26 08:39:33;;;;;;;1.55;1.23;;;19.70;99.90;;;20.05;100.00;100910.13;5244746;28;20048;-60
2022/10/26 08:42:13;;;;;;;3.20;1.33;;;19.70;99.90;;;20.06;100.00;100921.59;5245103;28;20051;-61
2022/10/26 08:44:48;;;;;;;4.70;1.45;;;19.70;99.90;;;19.94;100.00;100908.38;5245858;28;20390;-59
2022/10/26 08:47:23;;;;;;;1.50;0.93;;;19.60;99.90;;;19.63;100.00;100912.84;5245704;28;20036;-59
2022/10/26 08:50:02;;;;;;;3.53;1.17;;;19.40;99.90;;;19.39;100.00;100916.34;5244731;28;20047;-60
2022/10/26 08:52:41;;;;;;;4.07;1.20;;;19.10;99.90;;;19.15;100.00;100917.16;5245536;28;20044;-60
2022/10/26 08:55:18;;;;;;;3.72;1.65;;;18.90;99.90;;;18.89;100.00;100925.91;5236408;28;20123;-61
2022/10/26 08:57:51;;;;;;;3.10;1.10;;;18.70;99.90;;;18.69;100.00;100946.09;5218387;28;20048;-59
2022/10/26 09:00:26;;;;;;;3.45;1.60;;;18.40;99.90;;;18.51;100.00;100946.84;5243836;28;20044;-59
2022/10/26 09:02:58;;;;;;;3.47;1.30;;;18.30;99.90;;;18.34;100.00;100941.50;5244621;28;20059;-59
2022/10/26 09:05:38;;;;;;;2.10;1.20;;;18.10;99.90;;;18.21;100.00;100944.06;5237510;28;20048;-60
2022/10/26 09:08:19;;;;;;;2.17;1.10;;;17.90;99.90;;;18.04;100.00;100939.56;5245245;28;20051;-62
2022/10/26 09:11:02;;;;;;;2.50;1.10;;;17.80;99.90;;;17.88;100.00;100937.72;5241284;28;20048;-60
2022/10/26 09:13:45;;;;;;;2.85;1.40;;;17.60;99.90;;;17.68;100.00;100926.97;5246049;28;20040;-60
2022/10/26 09:16:28;;;;;;;3.90;1.20;;;17.50;99.90;;;17.53;100.00;100930.34;5245953;28;20068;-59
2022/10/26 09:19:35;;;;;;;2.50;1.20;;;17.30;99.90;;;17.41;100.00;100917.09;5245420;28;20536;-59
2022/10/26 09:22:16;;;;;;;3.83;1.30;;;17.20;99.90;;;17.38;100.00;100927.59;5243853;28;20549;-60
2022/10/26 09:24:53;;;;;;;3.38;1.33;;;17.10;99.90;;;17.34;100.00;100941.59;5240184;28;20040;-60
2022/10/26 09:27:28;;;;;;;3.47;1.20;;;17.10;99.90;;;17.34;100.00;100941.59;5243739;28;20044;-60
2022/10/26 09:30:13;;;;;;;2.47;1.65;;;17.10;99.90;;;17.36;100.00;100945.16;5233954;28;20103;-60
2022/10/26 09:32:50;;;;;;;2.90;1.50;;;17.10;99.90;;;17.48;100.00;100953.16;5244605;28;20409;-59
2022/10/26 09:35:25;;;;;;;3.05;1.83;;;17.10;99.90;;;17.62;100.00;100966.47;5245529;28;20386;-60
2022/10/26 09:38:04;;;;;;;4.28;1.55;;;17.20;99.90;;;17.90;100.00;100964.97;5245163;28;20052;-64
2022/10/26 09:40:43;;;;;;;3.00;1.40;;;17.40;99.90;;;18.22;100.00;100966.94;5245246;28;20040;-64
2022/10/26 09:43:20;;;;;;;2.55;1.35;;;17.60;99.90;;;18.53;100.00;100968.88;5245761;28;20045;-64
2022/10/26 09:45:53;;;;;;;5.22;1.40;;;17.90;99.90;;;18.60;100.00;100975.09;5245375;28;20051;-61
2022/10/26 09:48:34;;;;;;;4.43;1.70;;;18.10;99.90;;;18.59;100.00;100975.97;5245374;28;20405;-61
2022/10/26 09:51:06;;;;;;;;;;;18.20;99.90;;;18.59;100.00;100979.47;5245502;28;20412;-62
2022/10/26 09:53:38;;;;;;;3.88;1.90;;;18.20;99.90;;;18.56;100.00;100978.56;5245324;28;20326;-60
2022/10/26 09:56:13;;;;;;;2.03;1.17;;;18.20;99.90;;;18.65;100.00;100984.78;5245451;28;20048;-63
2022/10/26 09:58:50;;;;;;;2.88;1.50;;;18.30;99.90;;;18.88;100.00;100994.59;5245469;28;20382;-65
2022/10/26 10:01:31;;;;;;;2.53;1.30;;;18.50;99.90;;;19.18;100.00;100992.06;5245061;28;20040;-60
2022/10/26 10:04:19;;;;;;;2.67;1.08;;;18.70;99.90;;;19.52;100.00;100998.28;5245516;28;20118;-62
2022/10/26 10:06:53;;;;;;;4.95;1.58;;;19.00;99.90;;;19.87;100.00;100999.22;5245238;28;20056;-62
2022/10/26 10:09:25;;;;;;;3.08;1.30;;;19.30;99.90;;;20.07;100.00;101000.09;5227092;28;20045;-61
2022/10/26 10:12:01;;;;;;;3.15;1.27;;;19.50;99.90;;;20.34;100.00;101007.09;5503874;22;20045;-59
2022/10/26 10:14:42;;;;;;;2.80;1.20;;;19.80;99.90;;;20.54;100.00;100999.19;5224732;28;20048;-60
2022/10/26 10:17:20;;;;;;;2.42;1.10;;;20.00;99.90;;;20.59;100.00;101002.69;5204464;28;20114;-58
2022/10/26 10:19:53;;;;;;;4.25;1.25;;;20.10;99.90;;;20.60;100.00;101004.44;5224315;28;20440;-59
2022/10/26 10:22:26;;;;;;;3.95;1.20;;;20.10;99.90;;;20.58;100.00;101011.50;5215308;28;20053;-60
2022/10/26 10:25:00;;;;;;;2.67;1.02;;;20.10;99.90;;;20.54;100.00;101012.44;5203285;28;20045;-60
2022/10/26 10:27:33;;;;;;;3.20;1.20;;;20.20;99.90;;;20.64;100.00;101010.63;5206667;28;20064;-59
2022/10/26 10:30:22;;;;;;;3.35;1.65;;;20.20;99.90;;;20.79;100.00;101026.44;5207566;28;20439;-59
2022/10/26 10:33:06;;;;;;;2.55;1.30;;;20.30;99.90;;;21.01;100.00;101029.91;5206998;28;20045;-59
2022/10/26 10:35:48;;;;;;;4.05;1.48;;;20.50;99.90;;;21.16;100.00;101031.59;5207482;28;20041;-58
2022/10/26 10:38:21;;;;;;;2.13;1.10;;;20.60;99.90;;;21.29;100.00;101028.91;5207373;28;20124;-60
2022/10/26 10:40:56;;;;;;;3.65;1.27;;;20.70;99.90;;;21.36;100.00;101035.94;5212416;28;20072;-59